Time;durP1;ratioP1;P1;durP2;ratioP2;P2;SDS_P1;SDS_P2;PMS_P1;PMS_P2;Temp;Humidity;BMP_temperature;BMP_pressure;BME280_temperature;BME280_humidity;BME280_pressure;Samples;Min_cycle;Max_cycle;Signal;HPM_P1;HPM_P2
2022/12/24 00:01:30;;;;;;;0.50;0.50;;;;;;;2.74;100.00;99326.66;5051917;28;20614;-65
2022/12/24 00:03:56;;;;;;;6.13;1.37;;;;;;;2.77;100.00;99319.06;5051821;28;20250;-66
2022/12/24 00:06:24;;;;;;;0.60;0.60;;;;;;;2.70;100.00;99304.72;5052044;28;20600;-65
2022/12/24 00:08:51;;;;;;;1.20;1.20;;;;;;;2.80;100.00;99323.28;5051490;28;20209;-66
2022/12/24 00:11:19;;;;;;;0.70;0.70;;;;;;;2.66;100.00;99297.97;5051927;28;20228;-66
2022/12/24 00:13:46;;;;;;;1.33;1.33;;;;;;;2.80;100.00;99328.34;5051418;28;20573;-66
2022/12/24 00:16:14;;;;;;;1.00;1.00;;;;;;;2.80;100.00;99329.19;5051396;28;20201;-66
2022/12/24 00:18:41;;;;;;;0.70;0.70;;;;;;;2.77;100.00;99320.75;5051485;28;20200;-66
2022/12/24 00:21:08;;;;;;;0.60;0.60;;;;;;;2.78;100.00;99318.19;5050766;28;20196;-65
2022/12/24 00:23:35;;;;;;;0.60;0.60;;;;;;;2.80;100.00;99319.06;5050972;28;20192;-65
2022/12/24 00:26:01;;;;;;;0.50;0.50;;;;;;;2.79;100.00;99324.09;5050921;28;20217;-66
2022/12/24 00:28:28;;;;;;;0.50;0.50;;;;;;;2.74;100.00;99311.47;5051261;28;20576;-65
2022/12/24 00:30:55;;;;;;;0.87;0.87;;;;;;;2.79;100.00;99316.50;5050752;28;20332;-65
2022/12/24 00:33:23;;;;;;;0.57;0.57;;;;;;;2.82;100.00;99331.69;5050391;28;20212;-65
2022/12/24 00:35:52;;;;;;;0.63;0.63;;;;;;;2.68;100.00;99308.09;5049413;28;20604;-65
2022/12/24 00:38:19;;;;;;;0.60;0.60;;;;;;;2.72;100.00;99330.84;5048948;28;20577;-65
2022/12/24 00:40:45;;;;;;;0.50;0.50;;;;;;;2.68;100.00;99324.13;5050780;28;20193;-65
2022/12/24 00:43:12;;;;;;;0.80;0.80;;;;;;;2.62;100.00;99327.47;5050719;28;20205;-65
2022/12/24 00:45:39;;;;;;;0.60;0.60;;;;;;;2.60;100.00;99326.66;5050818;28;20228;-64
2022/12/24 00:48:06;;;;;;;1.00;1.00;;;;;;;2.60;100.00;99320.75;5051321;28;20691;-65
2022/12/24 00:50:34;;;;;;;0.60;0.60;;;;;;;2.53;100.00;99309.78;5050265;28;20200;-65
2022/12/24 00:53:01;;;;;;;0.70;0.70;;;;;;;2.52;100.00;99303.00;5050857;28;20200;-65
2022/12/24 00:55:28;;;;;;;0.60;0.60;;;;;;;2.58;100.00;99307.25;5050454;28;20266;-65
2022/12/24 00:57:55;;;;;;;0.93;0.93;;;;;;;2.61;100.00;99309.78;5050594;28;20204;-65
2022/12/24 01:00:22;;;;;;;0.57;0.57;;;;;;;2.65;100.00;99324.09;5050338;28;20635;-65
2022/12/24 01:02:48;;;;;;;0.87;0.87;;;;;;;2.68;100.00;99319.06;5050171;28;20228;-64
2022/12/24 01:05:14;;;;;;;1.30;1.30;;;;;;;2.64;100.00;99317.38;5051015;28;20557;-65
2022/12/24 01:07:44;;;;;;;0.50;0.50;;;;;;;2.62;100.00;99313.97;5050417;28;20196;-65
2022/12/24 01:10:12;;;;;;;0.60;0.60;;;;;;;2.58;100.00;99314.84;5050655;28;20212;-65
2022/12/24 01:12:39;;;;;;;0.90;0.90;;;;;;;2.58;100.00;99313.16;5050182;28;20276;-65
2022/12/24 01:15:08;;;;;;;0.50;0.50;;;;;;;2.59;100.00;99312.28;5050121;28;20205;-65
2022/12/24 01:17:35;;;;;;;0.73;0.73;;;;;;;2.52;100.00;99292.91;5050001;28;20247;-65
2022/12/24 01:20:03;;;;;;;0.60;0.60;;;;;;;2.60;100.00;99308.94;5049069;28;20223;-65
2022/12/24 01:22:30;;;;;;;0.50;0.50;;;;;;;2.60;100.00;99300.50;5050262;28;20204;-65
2022/12/24 01:24:58;;;;;;;0.80;0.80;;;;;;;2.56;100.00;99298.81;5050323;28;20197;-65
2022/12/24 01:27:25;;;;;;;0.70;0.70;;;;;;;2.52;100.00;99289.53;5050275;28;20216;-65
2022/12/24 01:29:52;;;;;;;0.60;0.60;;;;;;;2.51;100.00;99292.91;5049990;28;20262;-65
2022/12/24 01:32:19;;;;;;;0.67;0.67;;;;;;;2.54;100.00;99310.63;5049974;28;20261;-65
2022/12/24 01:34:45;;;;;;;0.77;0.77;;;;;;;2.54;100.00;99308.94;5050102;28;20196;-65
2022/12/24 01:37:12;;;;;;;0.87;0.87;;;;;;;2.52;100.00;99294.59;5049913;28;20197;-65
2022/12/24 01:39:39;;;;;;;0.73;0.73;;;;;;;2.50;100.00;99301.34;5049367;28;20203;-65
2022/12/24 01:45:36;;;;;;;0.60;0.60;;;;;;;2.40;100.00;99292.03;5054165;28;20342;-65
2022/12/24 01:48:04;;;;;;;1.60;1.60;;;;;;;2.42;100.00;99293.75;5047520;28;20576;-65
2022/12/24 01:50:31;;;;;;;0.70;0.70;;;;;;;2.39;100.00;99290.38;5054608;28;20576;-65
2022/12/24 01:52:58;;;;;;;2.63;1.33;;;;;;;2.36;100.00;99295.44;5054504;28;20201;-65
2022/12/24 01:55:26;;;;;;;0.80;0.80;;;;;;;2.37;100.00;99292.91;5054582;28;20718;-65
2022/12/24 01:57:56;;;;;;;0.60;0.60;;;;;;;2.34;100.00;99287.00;5054454;28;20201;-65
2022/12/24 02:00:23;;;;;;;0.70;0.70;;;;;;;2.30;100.00;99275.16;5053106;28;20201;-65
2022/12/24 02:02:53;;;;;;;0.87;0.87;;;;;;;2.35;100.00;99286.16;5052559;28;20216;-65
2022/12/24 02:05:25;;;;;;;0.73;0.73;;;;;;;2.36;100.00;99288.66;5053682;28;20207;-65
2022/12/24 02:07:52;;;;;;;0.80;0.80;;;;;;;2.35;100.00;99283.63;5053874;28;20197;-65
2022/12/24 02:10:19;;;;;;;0.50;0.50;;;;;;;2.34;100.00;99292.91;5054223;28;20203;-65
2022/12/24 02:12:47;;;;;;;0.80;0.80;;;;;;;2.32;100.00;99294.59;5053895;28;20731;-65
2022/12/24 02:15:18;;;;;;;0.67;0.67;;;;;;;2.10;100.00;99283.56;5053364;28;20204;-65
2022/12/24 02:17:54;;;;;;;0.60;0.60;;;;;;;2.24;100.00;99296.25;5053711;28;20201;-65
2022/12/24 02:20:48;;;;;;;0.60;0.60;;;;;;;2.24;100.00;99285.28;5053380;28;20203;-65
2022/12/24 02:23:32;;;;;;;0.60;0.60;;;;;;;2.18;100.00;99280.22;5053057;28;20201;-65
2022/12/24 02:26:18;;;;;;;0.70;0.70;;;;;;;2.19;100.00;99292.03;5053616;28;20220;-65
2022/12/24 02:29:07;;;;;;;1.43;1.43;;;;;;;2.18;100.00;99295.41;5053503;28;20665;-65
2022/12/24 02:31:41;;;;;;;0.60;0.60;;;;;;;2.10;100.00;99293.69;5052747;28;20201;-65
2022/12/24 02:34:16;;;;;;;1.00;1.00;;;;;;;2.16;100.00;99297.09;5050916;28;20200;-67
2022/12/24 02:36:48;;;;;;;0.63;0.63;;;;;;;2.17;100.00;99298.75;5053095;28;20691;-65
2022/12/24 02:39:22;;;;;;;0.60;0.60;;;;;;;1.96;100.00;99275.16;5053271;28;20220;-65
2022/12/24 02:42:07;;;;;;;0.80;0.80;;;;;;;2.16;100.00;99307.22;5052940;28;20197;-65
2022/12/24 02:44:41;;;;;;;0.70;0.70;;;;;;;2.14;100.00;99299.59;5052463;28;20258;-65
2022/12/24 02:47:10;;;;;;;0.60;0.60;;;;;;;2.12;100.00;99306.34;5050449;28;20250;-65
2022/12/24 02:49:38;;;;;;;0.50;0.50;;;;;;;2.11;100.00;99299.59;5051000;28;20204;-65
2022/12/24 02:52:05;;;;;;;0.80;0.80;;;;;;;2.11;100.00;99294.53;5052514;28;20738;-65
2022/12/24 02:54:33;;;;;;;0.70;0.70;;;;;;;2.11;100.00;99299.59;5052931;28;20205;-65
2022/12/24 02:57:18;;;;;;;0.60;0.60;;;;;;;2.10;100.00;99298.75;5050189;28;20192;-64
2022/12/24 03:00:01;;;;;;;0.70;0.70;;;;;;;2.07;100.00;99301.28;5052920;28;20252;-65
2022/12/24 03:02:47;;;;;;;0.60;0.60;;;;;;;2.00;100.00;99302.09;5052530;28;20216;-65
2022/12/24 03:05:25;;;;;;;0.70;0.70;;;;;;;1.95;100.00;99296.19;5052857;28;20196;-65
2022/12/24 03:08:01;;;;;;;0.77;0.77;;;;;;;1.93;100.00;99294.50;5052802;28;20224;-65
2022/12/24 03:10:35;;;;;;;0.60;0.60;;;;;;;1.94;100.00;99291.16;5052736;28;20211;-65
2022/12/24 03:13:07;;;;;;;2.30;2.30;;;;;;;1.96;100.00;99280.19;5052436;28;20246;-64
2022/12/24 03:15:34;;;;;;;0.70;0.70;;;;;;;2.00;100.00;99270.94;5051724;28;20197;-65
2022/12/24 03:18:05;;;;;;;0.50;0.50;;;;;;;1.99;100.00;99275.16;5052695;28;20200;-65
2022/12/24 03:20:35;;;;;;;0.70;0.70;;;;;;;1.97;100.00;99269.22;5052776;28;20255;-65
2022/12/24 03:23:03;;;;;;;0.70;0.70;;;;;;;1.94;100.00;99268.41;5052966;28;20201;-65
2022/12/24 03:25:33;;;;;;;0.60;0.60;;;;;;;1.95;100.00;99268.38;5052086;28;20197;-65
2022/12/24 03:28:02;;;;;;;0.60;0.60;;;;;;;1.94;100.00;99269.22;5052057;28;20212;-65
2022/12/24 03:30:29;;;;;;;0.70;0.70;;;;;;;1.95;100.00;99278.50;5050702;28;20200;-65
2022/12/24 03:32:56;;;;;;;0.67;0.67;;;;;;;1.97;100.00;99271.75;5048837;28;20208;-65
2022/12/24 03:35:25;;;;;;;0.57;0.57;;;;;;;2.02;100.00;99280.22;5051722;28;20208;-65
2022/12/24 03:37:52;;;;;;;0.67;0.67;;;;;;;1.97;100.00;99276.81;5052070;28;20201;-65
2022/12/24 03:40:19;;;;;;;0.60;0.60;;;;;;;1.83;100.00;99265.00;5051643;28;20631;-64
2022/12/24 03:42:45;;;;;;;0.60;0.60;;;;;;;1.92;100.00;99280.19;5052615;28;20734;-65
2022/12/24 03:45:12;;;;;;;0.60;0.60;;;;;;;1.94;100.00;99276.00;5052583;28;20204;-65
2022/12/24 03:47:39;;;;;;;0.70;0.70;;;;;;;1.94;100.00;99269.22;5051709;28;20259;-65
2022/12/24 03:50:07;;;;;;;0.67;0.67;;;;;;;1.94;100.00;99265.88;5052000;28;20201;-65
2022/12/24 03:52:35;;;;;;;3.30;1.03;;;;;;;1.90;100.00;99269.22;5051894;28;20200;-65
2022/12/24 03:55:02;;;;;;;0.90;0.90;;;;;;;1.87;100.00;99277.66;5051758;28;20205;-65
2022/12/24 03:57:29;;;;;;;0.60;0.60;;;;;;;1.83;100.00;99270.91;5050397;28;20654;-64
2022/12/24 03:59:56;;;;;;;0.50;0.50;;;;;;;1.89;100.00;99270.06;5049382;28;20208;-65
2022/12/24 04:02:22;;;;;;;0.80;0.80;;;;;;;1.88;100.00;99271.75;5051181;28;20228;-65
2022/12/24 04:04:49;;;;;;;2.20;2.20;;;;;;;1.87;100.00;99274.28;5051517;28;20266;-65
2022/12/24 04:07:16;;;;;;;0.70;0.70;;;;;;;1.88;100.00;99266.69;5051025;28;20278;-66
2022/12/24 04:09:44;;;;;;;0.90;0.90;;;;;;;1.86;100.00;99265.84;5051727;28;20676;-65
2022/12/24 04:12:11;;;;;;;0.70;0.70;;;;;;;1.87;100.00;99269.22;5050967;28;20211;-65
2022/12/24 04:14:38;;;;;;;0.60;0.60;;;;;;;1.87;100.00;99274.28;5050563;28;20201;-65
2022/12/24 04:17:04;;;;;;;1.10;1.10;;;;;;;1.81;100.00;99280.13;5051571;28;20212;-65
2022/12/24 04:19:31;;;;;;;0.90;0.90;;;;;;;1.81;100.00;99291.97;5050946;28;20201;-65
2022/12/24 04:21:58;;;;;;;0.70;0.70;;;;;;;1.75;100.00;99275.06;5050811;28;20215;-65
2022/12/24 04:24:25;;;;;;;0.70;0.70;;;;;;;1.75;100.00;99272.53;5051436;28;20204;-65
2022/12/24 04:26:53;;;;;;;0.80;0.80;;;;;;;1.76;100.00;99279.28;5051456;28;20219;-65
2022/12/24 04:29:20;;;;;;;0.70;0.70;;;;;;;1.76;100.00;99276.78;5050652;28;20204;-65
2022/12/24 04:31:47;;;;;;;0.60;0.60;;;;;;;1.66;100.00;99270.00;5051298;28;20197;-64
2022/12/24 04:34:13;;;;;;;0.60;0.60;;;;;;;1.74;100.00;99278.47;5051090;28;20204;-65
2022/12/24 04:36:40;;;;;;;3.03;1.27;;;;;;;1.73;100.00;99289.41;5050994;28;20330;-65
2022/12/24 04:39:07;;;;;;;1.57;1.57;;;;;;;1.60;100.00;99264.94;5050517;28;20204;-65
2022/12/24 04:41:34;;;;;;;0.80;0.80;;;;;;;1.72;100.00;99285.16;5051048;28;20204;-65
2022/12/24 04:44:02;;;;;;;1.20;1.20;;;;;;;1.68;100.00;99293.56;5050196;28;20192;-65
2022/12/24 04:46:30;;;;;;;0.60;0.60;;;;;;;1.64;100.00;99291.91;5050467;28;20235;-66
2022/12/24 04:48:58;;;;;;;0.73;0.73;;;;;;;1.64;100.00;99279.25;5050264;28;20281;-65
2022/12/24 04:51:26;;;;;;;0.60;0.60;;;;;;;1.58;100.00;99271.66;5050613;28;20197;-65
2022/12/24 04:53:53;;;;;;;0.70;0.70;;;;;;;1.59;100.00;99283.44;5050768;28;20200;-65
2022/12/24 04:56:22;;;;;;;0.83;0.83;;;;;;;1.58;100.00;99289.34;5050902;28;20204;-66
2022/12/24 04:58:50;;;;;;;0.60;0.60;;;;;;;1.57;100.00;99285.97;5050876;28;20673;-66
2022/12/24 05:01:20;;;;;;;0.73;0.73;;;;;;;1.57;100.00;99291.03;5050076;28;20236;-65
2022/12/24 05:03:47;;;;;;;0.70;0.70;;;;;;;1.46;100.00;99280.03;5050430;28;20611;-65
2022/12/24 05:06:16;;;;;;;0.50;0.50;;;;;;;1.54;100.00;99285.97;5050800;28;20266;-65
2022/12/24 05:08:43;;;;;;;0.60;0.60;;;;;;;1.53;100.00;99294.38;5050183;28;20263;-66
2022/12/24 05:11:14;;;;;;;0.60;0.60;;;;;;;1.52;100.00;99297.72;5050299;28;20201;-65
2022/12/24 05:13:41;;;;;;;0.70;0.70;;;;;;;1.55;100.00;99299.44;5050621;28;20635;-65
2022/12/24 05:16:08;;;;;;;0.90;0.90;;;;;;;1.51;100.00;99296.06;5047439;28;20681;-65
2022/12/24 05:18:39;;;;;;;0.77;0.77;;;;;;;1.49;100.00;99296.88;5048571;28;20197;-66
2022/12/24 05:21:09;;;;;;;0.60;0.60;;;;;;;1.45;100.00;99295.19;5049296;28;20205;-64
2022/12/24 05:26:28;;;;;;;0.80;0.80;;;;;;;1.40;100.00;99304.41;5050280;28;20195;-65
2022/12/24 05:28:58;;;;;;;0.63;0.63;;;;;;;1.37;100.00;99297.66;5050203;28;20649;-66
2022/12/24 05:31:26;;;;;;;0.50;0.50;;;;;;;1.39;100.00;99315.38;5048439;28;20576;-65
2022/12/24 05:33:55;;;;;;;2.27;2.17;;;;;;;1.36;100.00;99310.28;5049991;28;20201;-65
2022/12/24 05:36:23;;;;;;;0.50;0.50;;;;;;;1.32;100.00;99318.69;5050146;28;20660;-65
2022/12/24 05:38:50;;;;;;;0.70;0.70;;;;;;;1.28;100.00;99306.88;5050161;28;20196;-65
2022/12/24 05:41:17;;;;;;;0.70;0.70;;;;;;;1.27;100.00;99312.75;5049827;28;20684;-65
2022/12/24 05:43:44;;;;;;;0.70;0.70;;;;;;;1.28;100.00;99309.41;5050210;28;20714;-65
2022/12/24 05:46:13;;;;;;;1.17;1.17;;;;;;;1.25;100.00;99309.38;5050387;28;20215;-65
2022/12/24 05:48:40;;;;;;;0.83;0.83;;;;;;;1.29;100.00;99313.63;5047471;28;20267;-65
2022/12/24 05:51:11;;;;;;;1.10;1.10;;;;;;;1.31;100.00;99311.94;5050345;28;20251;-65
2022/12/24 05:53:38;;;;;;;0.67;0.67;;;;;;;1.30;100.00;99320.34;5049856;28;20204;-66
2022/12/24 05:56:06;;;;;;;0.73;0.73;;;;;;;1.30;100.00;99315.28;5049779;28;20330;-65
2022/12/24 05:58:33;;;;;;;0.80;0.80;;;;;;;1.29;100.00;99326.25;5050190;28;20192;-65
2022/12/24 06:01:01;;;;;;;0.70;0.70;;;;;;;1.28;100.00;99319.50;5050089;28;20197;-65
2022/12/24 06:03:28;;;;;;;0.80;0.80;;;;;;;1.26;100.00;99313.63;5049892;28;20196;-65
2022/12/24 06:05:59;;;;;;;1.00;1.00;;;;;;;1.29;100.00;99323.72;5050038;28;20659;-65
2022/12/24 06:08:28;;;;;;;0.70;0.70;;;;;;;1.28;100.00;99325.41;5050163;28;20576;-65
2022/12/24 06:10:56;;;;;;;1.73;1.73;;;;;;;1.30;100.00;99331.28;5048941;28;20197;-65
2022/12/24 06:13:23;;;;;;;0.90;0.90;;;;;;;1.27;100.00;99332.97;5046368;28;20291;-65
2022/12/24 06:15:50;;;;;;;2.37;2.17;;;;;;;1.11;100.00;99313.50;5049246;28;20223;-65
2022/12/24 06:18:17;;;;;;;1.93;1.93;;;;;;;1.18;100.00;99326.19;5049058;28;20557;-66
2022/12/24 06:20:44;;;;;;;0.80;0.80;;;;;;;1.24;100.00;99325.38;5049453;28;20197;-65
2022/12/24 06:23:11;;;;;;;0.80;0.80;;;;;;;1.28;100.00;99327.94;5050309;28;20626;-66
2022/12/24 06:25:39;;;;;;;0.77;0.77;;;;;;;1.32;100.00;99338.91;5048675;28;20213;-65
2022/12/24 06:28:06;;;;;;;0.70;0.70;;;;;;;1.32;100.00;99328.78;5049528;28;20596;-66
2022/12/24 06:30:33;;;;;;;0.60;0.60;;;;;;;1.34;100.00;99327.09;5052027;28;20201;-66
2022/12/24 06:32:59;;;;;;;0.77;0.77;;;;;;;1.34;100.00;99327.09;5053443;28;20201;-65
2022/12/24 06:35:26;;;;;;;0.60;0.60;;;;;;;1.35;100.00;99328.81;5052967;28;20200;-66
2022/12/24 06:37:53;;;;;;;0.70;0.70;;;;;;;1.35;100.00;99331.34;5053213;28;20653;-65
2022/12/24 06:40:20;;;;;;;0.67;0.67;;;;;;;1.41;100.00;99344.00;5053326;28;20225;-66
2022/12/24 06:42:48;;;;;;;0.93;0.93;;;;;;;1.42;100.00;99349.03;5053391;28;20204;-66
2022/12/24 06:45:15;;;;;;;0.70;0.70;;;;;;;1.44;100.00;99338.94;5052920;28;20204;-65
2022/12/24 06:47:41;;;;;;;1.30;1.30;;;;;;;1.46;100.00;99332.22;5052855;28;20212;-66
2022/12/24 06:50:09;;;;;;;0.97;0.97;;;;;;;1.51;100.00;99328.91;5052837;28;20273;-66
2022/12/24 06:52:36;;;;;;;0.57;0.57;;;;;;;1.55;100.00;99328.06;5052646;28;20639;-66
2022/12/24 06:55:04;;;;;;;0.60;0.60;;;;;;;1.56;100.00;99334.81;5052823;28;20634;-65
2022/12/24 06:57:31;;;;;;;0.50;0.50;;;;;;;1.55;100.00;99332.28;5052546;28;20212;-66
2022/12/24 06:59:59;;;;;;;1.57;1.57;;;;;;;1.62;100.00;99336.50;5053444;28;20200;-63
2022/12/24 07:02:26;;;;;;;0.70;0.70;;;;;;;1.65;100.00;99341.56;5054030;28;20311;-63
2022/12/24 07:04:53;;;;;;;0.73;0.73;;;;;;;1.63;100.00;99335.69;5053976;28;20255;-62
2022/12/24 07:07:20;;;;;;;1.50;0.83;;;;;;;1.67;100.00;99337.38;5053857;28;20224;-62
2022/12/24 07:09:47;;;;;;;1.33;1.33;;;;;;;1.70;100.00;99342.44;5053853;28;20216;-62
2022/12/24 07:12:16;;;;;;;0.87;0.87;;;;;;;1.77;100.00;99336.59;5053957;28;20262;-62
2022/12/24 07:14:42;;;;;;;2.30;1.47;;;;;;;1.82;100.00;99339.13;5053389;28;20211;-63
2022/12/24 07:17:11;;;;;;;0.67;0.67;;;;;;;1.85;100.00;99331.53;5053672;28;20216;-62
2022/12/24 07:19:37;;;;;;;1.40;1.40;;;;;;;1.90;100.00;99338.31;5053475;28;20291;-62
2022/12/24 07:22:04;;;;;;;0.70;0.70;;;;;;;1.91;100.00;99337.47;5053638;28;20197;-63
2022/12/24 07:24:31;;;;;;;0.67;0.67;;;;;;;1.99;100.00;99325.72;5053312;28;20205;-62
2022/12/24 07:26:58;;;;;;;0.60;0.60;;;;;;;2.01;100.00;99323.16;5053524;28;20204;-62
2022/12/24 07:29:25;;;;;;;0.80;0.80;;;;;;;2.08;100.00;99340.03;5049565;28;20593;-62
2022/12/24 07:31:51;;;;;;;1.10;1.10;;;;;;;2.13;100.00;99335.00;5053309;28;20196;-62
2022/12/24 07:34:19;;;;;;;0.70;0.70;;;;;;;2.26;100.00;99334.19;5053388;28;20287;-62
2022/12/24 07:36:46;;;;;;;0.90;0.90;;;;;;;2.32;100.00;99331.69;5053267;28;20723;-62
2022/12/24 07:39:13;;;;;;;1.23;1.23;;;;;;;2.39;100.00;99330.84;5053417;28;20196;-62
2022/12/24 07:41:40;;;;;;;0.60;0.60;;;;;;;2.51;100.00;99331.72;5052394;28;20554;-62
2022/12/24 07:44:07;;;;;;;0.87;0.87;;;;;;;2.58;100.00;99327.50;5051423;28;20207;-65
2022/12/24 07:46:33;;;;;;;0.67;0.67;;;;;;;2.69;100.00;99337.59;5052087;28;20204;-65
2022/12/24 07:49:00;;;;;;;0.70;0.70;;;;;;;2.77;100.00;99331.72;5051367;28;20215;-65
2022/12/24 07:51:28;;;;;;;0.90;0.90;;;;;;;2.89;100.00;99340.97;5052105;28;20256;-65
2022/12/24 07:53:55;;;;;;;0.73;0.73;;;;;;;3.00;100.00;99342.69;5049621;28;20262;-65
2022/12/24 07:56:22;;;;;;;1.10;1.10;;;;;;;3.09;100.00;99352.78;5050601;28;20200;-65
2022/12/24 07:58:50;;;;;;;0.60;0.60;;;;;;;3.22;100.00;99352.78;5051641;28;20193;-65
2022/12/24 08:01:18;;;;;;;0.50;0.50;;;;;;;3.32;100.00;99356.97;5052902;28;20236;-62
2022/12/24 08:03:45;;;;;;;0.83;0.83;;;;;;;3.41;100.00;99365.41;5051536;28;20193;-62
2022/12/24 08:06:12;;;;;;;0.63;0.63;;;;;;;3.52;100.00;99362.84;5052609;28;20196;-62
2022/12/24 08:08:40;;;;;;;0.57;0.57;;;;;;;3.57;100.00;99364.53;5051988;28;20213;-63
2022/12/24 08:11:07;;;;;;;0.90;0.90;;;;;;;3.64;100.00;99367.88;5052478;28;20750;-62
2022/12/24 08:13:34;;;;;;;0.50;0.50;;;;;;;3.65;100.00;99349.31;5052610;28;20197;-62
2022/12/24 08:16:01;;;;;;;0.70;0.70;;;;;;;3.80;100.00;99368.66;5052117;28;20258;-63
2022/12/24 08:18:28;;;;;;;0.70;0.70;;;;;;;3.88;100.00;99377.09;5049526;28;20197;-63
2022/12/24 08:20:55;;;;;;;1.57;1.57;;;;;;;3.94;100.00;99382.97;5052570;28;20665;-63
2022/12/24 08:23:22;;;;;;;0.53;0.53;;;;;;;3.97;100.00;99382.97;5051995;28;20205;-65
2022/12/24 08:25:50;;;;;;;0.67;0.67;;;;;;;4.03;100.00;99382.97;5052075;28;20197;-62
2022/12/24 08:28:19;;;;;;;1.93;1.43;;;;;;;3.96;100.00;99358.47;5050870;28;20227;-63
2022/12/24 08:30:48;;;;;;;0.80;0.80;;;;;;;4.13;100.00;99377.00;5051861;28;20193;-63
2022/12/24 08:33:15;;;;;;;4.63;1.57;;;;;;;4.25;100.00;99381.16;5051789;28;20201;-63
2022/12/24 08:35:47;;;;;;;0.52;0.52;;;;;;;4.30;100.00;99371.81;5051691;28;20392;-62
2022/12/24 08:38:15;;;;;;;2.45;2.13;;;;;;;4.42;100.00;99370.91;5048922;28;20461;-58
2022/12/24 08:40:42;;;;;;;1.13;1.13;;;;;;;4.56;100.00;99371.66;5051274;28;20204;-58
2022/12/24 08:43:10;;;;;;;0.90;0.90;;;;;;;4.60;100.00;99375.88;5051557;28;20211;-58
2022/12/24 08:45:38;;;;;;;0.60;0.60;;;;;;;4.59;100.00;99358.94;5052263;28;20200;-58
2022/12/24 08:48:05;;;;;;;1.37;1.37;;;;;;;4.63;100.00;99361.44;5048632;28;20314;-59
2022/12/24 08:50:32;;;;;;;0.73;0.73;;;;;;;4.65;100.00;99359.75;5052109;28;20200;-58
2022/12/24 08:52:59;;;;;;;1.37;1.37;;;;;;;4.80;100.00;99366.41;5051028;28;20287;-58
2022/12/24 08:55:26;;;;;;;0.40;0.40;;;;;;;4.75;100.00;99355.44;5050810;28;20288;-59
2022/12/24 08:57:53;;;;;;;0.50;0.50;;;;;;;4.89;100.00;99373.97;5051535;28;20192;-59
2022/12/24 09:00:21;;;;;;;0.53;0.53;;;;;;;4.91;100.00;99363.81;5051506;28;20570;-59
2022/12/24 09:02:48;;;;;;;0.50;0.50;;;;;;;4.94;100.00;99367.16;5051923;28;20228;-59
2022/12/24 09:05:15;;;;;;;0.40;0.40;;;;;;;4.96;100.00;99365.44;5051564;28;20212;-59
2022/12/24 09:07:42;;;;;;;0.60;0.60;;;;;;;5.08;100.00;99360.25;5051488;28;20200;-59
2022/12/24 09:10:10;;;;;;;0.63;0.63;;;;;;;5.16;100.00;99353.41;5051569;28;20294;-59
2022/12/24 09:12:38;;;;;;;0.57;0.57;;;;;;;5.24;100.00;99346.53;5050516;28;20588;-59
2022/12/24 09:15:06;;;;;;;0.90;0.90;;;;;;;5.41;100.00;99343.84;5051748;28;20561;-59
2022/12/24 09:17:35;;;;;;;0.60;0.60;;;;;;;5.56;100.00;99332.66;5051543;28;20565;-59
2022/12/24 09:20:01;;;;;;;0.70;0.70;;;;;;;5.54;100.00;99329.28;5051407;28;20258;-59
2022/12/24 09:22:28;;;;;;;0.50;0.50;;;;;;;5.70;100.00;99335.88;5051260;28;20696;-58
2022/12/24 09:24:55;;;;;;;0.57;0.57;;;;;;;5.80;100.00;99337.47;5051550;28;20196;-59
2022/12/24 09:27:22;;;;;;;0.70;0.70;;;;;;;5.90;100.00;99334.00;5051472;28;20283;-59
2022/12/24 09:29:49;;;;;;;0.50;0.50;;;;;;;5.95;100.00;99324.56;5051141;28;20216;-59
2022/12/24 09:32:16;;;;;;;1.13;1.13;;;;;;;6.04;100.00;99321.91;5051338;28;20266;-58
2022/12/24 09:34:44;;;;;;;0.50;0.50;;;;;;;6.09;100.00;99315.06;5051150;28;20196;-59
2022/12/24 09:37:11;;;;;;;0.40;0.40;;;;;;;6.24;100.00;99325.03;5051124;28;20549;-59
2022/12/24 09:39:37;;;;;;;0.53;0.53;;;;;;;6.36;100.00;99313.00;5051049;28;20562;-59
2022/12/24 09:42:14;;;;;;;1.70;0.93;;;;;;;6.44;100.00;99322.19;5051104;28;20200;-59
2022/12/24 09:44:47;;;;;;;0.93;0.93;;;;;;;6.46;100.00;99306.91;5050031;28;20208;-59
2022/12/24 09:47:24;;;;;;;0.60;0.60;;;;;;;6.57;100.00;99302.47;5050917;28;20201;-58
2022/12/24 09:49:54;;;;;;;0.90;0.90;;;;;;;6.63;100.00;99303.22;5049581;28;20269;-59
2022/12/24 09:52:29;;;;;;;0.80;0.80;;;;;;;6.72;100.00;99292.06;5051251;28;20209;-58
2022/12/24 09:55:04;;;;;;;0.47;0.47;;;;;;;6.82;100.00;99293.56;5051020;28;20201;-59
2022/12/24 09:57:37;;;;;;;0.77;0.77;;;;;;;6.90;100.00;99296.00;5050784;28;20200;-59
2022/12/24 10:00:06;;;;;;;0.70;0.70;;;;;;;7.04;100.00;99296.63;5051010;28;20664;-59
2022/12/24 10:02:33;;;;;;;0.60;0.60;;;;;;;7.16;100.00;99293.84;5050385;28;20263;-59
2022/12/24 10:05:01;;;;;;;1.07;1.07;;;;;;;7.24;100.00;99290.28;5052388;28;20283;-59
2022/12/24 10:07:42;;;;;;;0.90;0.90;;;;;;;7.33;100.00;99285.00;5054607;28;20215;-59
2022/12/24 10:10:18;;;;;;;0.67;0.67;;;;;;;7.34;100.00;99280.75;5053509;28;20274;-59
2022/12/24 10:12:53;;;;;;;0.60;0.60;;;;;;;7.28;100.00;99279.16;5054728;28;20281;-59
2022/12/24 10:15:29;;;;;;;0.50;0.50;;;;;;;7.28;100.00;99275.75;5054889;28;20625;-59
2022/12/24 10:18:13;;;;;;;0.60;0.60;;;;;;;7.35;100.00;99279.88;5054585;28;20640;-59
2022/12/24 10:20:46;;;;;;;0.50;0.50;;;;;;;7.30;100.00;99254.47;5054386;28;20200;-58
2022/12/24 10:23:21;;;;;;;1.40;1.33;;;;;;;7.45;100.00;99275.44;5054159;28;20204;-59
2022/12/24 10:25:54;;;;;;;0.60;0.60;;;;;;;7.53;100.00;99271.03;5054113;28;20204;-59
2022/12/24 10:28:29;;;;;;;0.90;0.90;;;;;;;7.62;100.00;99269.16;5054350;28;20228;-59
2022/12/24 10:31:03;;;;;;;0.80;0.80;;;;;;;7.69;100.00;99267.31;5052714;28;20192;-59
2022/12/24 10:33:34;;;;;;;1.10;1.10;;;;;;;7.77;100.00;99260.31;5054268;28;20691;-59
2022/12/24 10:36:03;;;;;;;2.43;1.33;;;;;;;7.87;100.00;99269.47;5053952;28;20603;-59
2022/12/24 10:38:31;;;;;;;1.23;1.23;;;;;;;7.90;100.00;99264.28;5054303;28;20699;-59
2022/12/24 10:41:00;;;;;;;0.63;0.63;;;;;;;8.02;100.00;99261.47;5054130;28;20683;-59
2022/12/24 10:43:29;;;;;;;0.80;0.80;;;;;;;8.14;100.00;99265.47;5053956;28;20201;-59
2022/12/24 10:45:59;;;;;;;0.60;0.60;;;;;;;8.19;100.00;99261.94;5054578;28;20262;-59
2022/12/24 10:48:29;;;;;;;0.87;0.87;;;;;;;8.28;100.00;99261.75;5053727;28;20220;-59
2022/12/24 10:51:00;;;;;;;4.97;2.80;;;;;;;8.39;100.00;99264.91;5053670;28;20200;-59
2022/12/24 10:53:36;;;;;;;2.30;2.30;;;;;;;8.39;100.00;99241.94;5053863;28;20201;-59
2022/12/24 10:56:06;;;;;;;0.90;0.90;;;;;;;8.54;100.00;99253.47;5053445;28;20589;-59
2022/12/24 10:58:34;;;;;;;1.47;1.47;;;;;;;8.74;100.00;99255.53;5053122;28;20205;-59
2022/12/24 11:01:01;;;;;;;0.50;0.50;;;;;;;8.75;100.00;99262.34;5053572;28;20295;-59
2022/12/24 11:03:31;;;;;;;0.60;0.60;;;;;;;8.73;100.00;99253.84;5053456;28;20204;-59
2022/12/24 11:06:12;;;;;;;0.40;0.40;;;;;;;8.90;100.00;99267.06;5053584;28;20212;-59
2022/12/24 11:08:43;;;;;;;0.50;0.50;;;;;;;8.94;100.00;99266.09;5053541;28;20636;-59
2022/12/24 11:11:13;;;;;;;0.60;0.60;;;;;;;9.00;100.00;99260.84;5053335;28;20204;-59
2022/12/24 11:13:43;;;;;;;0.50;0.50;;;;;;;9.04;100.00;99269.25;5053721;28;20680;-58
2022/12/24 11:16:18;;;;;;;1.03;1.03;;;;;;;8.98;100.00;99239.59;5051958;28;20201;-58
2022/12/24 11:18:47;;;;;;;0.93;0.93;;;;;;;9.11;100.00;99251.16;5052966;28;20274;-63
2022/12/24 11:21:20;;;;;;;0.90;0.90;;;;;;;9.18;100.00;99239.88;5051319;28;20507;-63
2022/12/24 11:23:52;;;;;;;1.27;1.17;;;;;;;9.35;100.00;99247.94;5052221;28;20573;-63
2022/12/24 11:26:23;;;;;;;0.50;0.50;;;;;;;9.28;100.00;99213.16;5050713;28;20208;-63
2022/12/24 11:29:04;;;;;;;0.43;0.43;;;;;;;9.53;100.00;99243.19;5047691;28;20319;-63
2022/12/24 11:31:32;;;;;;;0.50;0.50;;;;;;;9.53;100.00;99233.81;5050884;28;20200;-63
2022/12/24 11:33:59;;;;;;;0.87;0.87;;;;;;;9.60;100.00;99229.31;5052306;28;20258;-62
2022/12/24 11:36:26;;;;;;;1.47;1.47;;;;;;;9.73;100.00;99238.31;5051248;28;20201;-62
2022/12/24 11:38:56;;;;;;;0.50;0.50;;;;;;;9.68;100.00;99224.84;5050887;28;20550;-62
2022/12/24 11:41:25;;;;;;;0.77;0.77;;;;;;;9.85;100.00;99238.81;5050451;28;20197;-62
2022/12/24 11:44:02;;;;;;;0.57;0.57;;;;;;;9.95;100.00;99237.63;5050294;28;20213;-63
2022/12/24 11:46:42;;;;;;;0.50;0.50;;;;;;;9.95;100.00;99241.94;5050504;28;20291;-63
2022/12/24 11:49:23;;;;;;;0.43;0.43;;;;;;;10.00;100.00;99234.94;5049810;28;20220;-62